Paxville, South Carolina
Current Conditions -  °F | °C
As of 11:35 AM on Monday 24 Nov 2014 (Local Time) from KCKI Reporting Station
Light Rain Light Rain  
Wind Chill: 72°   Ceiling: NA
Heat Index: 72°   Visibility: 5mi
Dew Point: 72°   Wind: 3mph
Humidity: 100%   Direction: 200°SSW
Pressure: 29.87"   Gusts: NA
Location:  33.6434°N, 80.1966°W
Report Text: KCKI 241635Z AUTO 20003KT 5SM -RA 22/22 A2987 RMK AO2 LTG DSNT E P0002
Loading
Personal Weather Stations






























Interactive Weather Map New forecast layout! Learn more

10-Day Weather Forecast

Advertisements
Track Severe Weather on mobile